地図

経路データ

SID SEASON NUMBER BASIN SUBBASIN NAME ISO_TIME NATURE LAT LON WMO_WIND WMO_PRES WMO_AGENCY TRACK_TYPE DIST2LAND LANDFALL IFLAG USA_AGENCY USA_ATCF_ID USA_LAT USA_LON USA_RECORD USA_STATUS USA_WIND USA_PRES USA_SSHS USA_R34_NE USA_R34_SE USA_R34_SW USA_R34_NW USA_R50_NE USA_R50_SE USA_R50_SW USA_R50_NW USA_R64_NE USA_R64_SE USA_R64_SW USA_R64_NW USA_POCI USA_ROCI USA_RMW USA_EYE TOKYO_LAT TOKYO_LON TOKYO_GRADE TOKYO_WIND TOKYO_PRES TOKYO_R50_DIR TOKYO_R50_LONG TOKYO_R50_SHORT TOKYO_R30_DIR TOKYO_R30_LONG TOKYO_R30_SHORT TOKYO_LAND CMA_LAT CMA_LON CMA_CAT CMA_WIND CMA_PRES HKO_LAT HKO_LON HKO_CAT HKO_WIND HKO_PRES NEWDELHI_LAT NEWDELHI_LON NEWDELHI_GRADE NEWDELHI_WIND NEWDELHI_PRES NEWDELHI_CI NEWDELHI_DP NEWDELHI_POCI REUNION_LAT REUNION_LON REUNION_TYPE REUNION_WIND REUNION_PRES REUNION_TNUM REUNION_CI REUNION_RMW REUNION_R34_NE REUNION_R34_SE REUNION_R34_SW REUNION_R34_NW REUNION_R50_NE REUNION_R50_SE REUNION_R50_SW REUNION_R50_NW REUNION_R64_NE REUNION_R64_SE REUNION_R64_SW REUNION_R64_NW BOM_LAT BOM_LON BOM_TYPE BOM_WIND BOM_PRES BOM_TNUM BOM_CI BOM_RMW BOM_R34_NE BOM_R34_SE BOM_R34_SW BOM_R34_NW BOM_R50_NE BOM_R50_SE BOM_R50_SW BOM_R50_NW BOM_R64_NE BOM_R64_SE BOM_R64_SW BOM_R64_NW BOM_ROCI BOM_POCI BOM_EYE BOM_POS_METHOD BOM_PRES_METHOD NADI_LAT NADI_LON NADI_CAT NADI_WIND NADI_PRES WELLINGTON_LAT WELLINGTON_LON WELLINGTON_WIND WELLINGTON_PRES DS824_LAT DS824_LON DS824_STAGE DS824_WIND DS824_PRES TD9636_LAT TD9636_LON TD9636_STAGE TD9636_WIND TD9636_PRES TD9635_LAT TD9635_LON TD9635_WIND TD9635_PRES TD9635_ROCI NEUMANN_LAT NEUMANN_LON NEUMANN_CLASS NEUMANN_WIND NEUMANN_PRES MLC_LAT MLC_LON MLC_CLASS MLC_WIND MLC_PRES USA_GUST BOM_GUST BOM_GUST_PER REUNION_GUST REUNION_GUST_PER USA_SEAHGT USA_SEARAD_NE USA_SEARAD_SE USA_SEARAD_SW USA_SEARAD_NW STORM_SPEED STORM_DIR
1888239N13328 1888 41 NA NA NOT_NAMED 1888-08-25 12:00:00 TS 12.9000 -31.6000 main 1536 1536 _____________O -1 12.9000 -31.6000 TD 30 12 286
1888239N13328 1888 41 NA NA NOT_NAMED 1888-08-25 15:00:00 TS 13.0628 -32.1998 main 1597 1597 _____________P -1 13.0628 -32.1998 TD 30 12 284
1888239N13328 1888 41 NA NA NOT_NAMED 1888-08-25 18:00:00 TS 13.2000 -32.8000 main 1660 1660 _____________O -1 13.2000 -32.8000 TD 30 12 281
1888239N13328 1888 41 NA NA NOT_NAMED 1888-08-25 21:00:00 TS 13.2999 -33.4002 main 1723 1723 _____________P -1 13.2999 -33.4002 TD 32 12 280
1888239N13328 1888 41 NA NA NOT_NAMED 1888-08-26 00:00:00 TS 13.4000 -34.0000 main 1786 1786 _____________O -1 13.4000 -34.0000 TS 35 12 282
1888239N13328 1888 41 NA NA NOT_NAMED 1888-08-26 03:00:00 TS 13.5499 -34.6000 main 1849 1848 _____________P -1 13.5499 -34.6000 TS 35 12 284
1888239N13328 1888 41 NA NA NOT_NAMED 1888-08-26 06:00:00 TS 13.7000 -35.2000 main 1911 1911 _____________O -1 13.7000 -35.2000 TS 35 12 282
1888239N13328 1888 41 NA NA NOT_NAMED 1888-08-26 09:00:00 TS 13.7999 -35.8002 main 1922 1915 _____________P -1 13.7999 -35.8002 TS 35 12 280
1888239N13328 1888 41 NA NA NOT_NAMED 1888-08-26 12:00:00 TS 13.9000 -36.4000 main 1919 1908 _____________O -1 13.9000 -36.4000 TS 35 12 282
1888239N13328 1888 41 NA NA NOT_NAMED 1888-08-26 15:00:00 TS 14.0499 -37.0000 main 1908 1867 _____________P -1 14.0499 -37.0000 TS 35 12 284
1888239N13328 1888 41 NA NA NOT_NAMED 1888-08-26 18:00:00 TS 14.2000 -37.6000 main 1867 1821 _____________O -1 14.2000 -37.6000 TS 35 12 282
1888239N13328 1888 41 NA NA NOT_NAMED 1888-08-26 21:00:00 TS 14.2998 -38.2002 main 1821 1777 _____________P -1 14.2998 -38.2002 TS 35 12 280
1888239N13328 1888 41 NA NA NOT_NAMED 1888-08-27 00:00:00 TS 14.4000 -38.8000 main 1777 1734 _____________O -1 14.4000 -38.8000 TS 35 12 282
1888239N13328 1888 41 NA NA NOT_NAMED 1888-08-27 03:00:00 TS 14.5498 -39.4000 main 1734 1700 _____________P -1 14.5498 -39.4000 TS 35 12 284
1888239N13328 1888 41 NA NA NOT_NAMED 1888-08-27 06:00:00 TS 14.7000 -40.0000 main 1700 1660 _____________O -1 14.7000 -40.0000 TS 35 12 282
1888239N13328 1888 41 NA NA NOT_NAMED 1888-08-27 09:00:00 TS 14.7998 -40.6002 main 1660 1622 _____________P -1 14.7998 -40.6002 TS 35 12 280
1888239N13328 1888 41 NA NA NOT_NAMED 1888-08-27 12:00:00 TS 14.9000 -41.2000 main 1622 1587 _____________O -1 14.9000 -41.2000 TS 35 12 282
1888239N13328 1888 41 NA NA NOT_NAMED 1888-08-27 15:00:00 TS 15.0498 -41.8000 main 1587 1562 _____________P -1 15.0498 -41.8000 TS 37 12 285
1888239N13328 1888 41 NA NA NOT_NAMED 1888-08-27 18:00:00 TS 15.2000 -42.4000 main 1562 1530 _____________O -1 15.2000 -42.4000 TS 40 12 282
1888239N13328 1888 41 NA NA NOT_NAMED 1888-08-27 21:00:00 TS 15.2998 -43.0002 main 1530 1501 _____________P -1 15.2998 -43.0002 TS 42 12 280
1888239N13328 1888 41 NA NA NOT_NAMED 1888-08-28 00:00:00 TS 15.4000 -43.6000 main 1501 1474 _____________O -1 15.4000 -43.6000 TS 45 12 282
1888239N13328 1888 41 NA NA NOT_NAMED 1888-08-28 03:00:00 TS 15.5498 -44.2000 main 1474 1452 _____________P -1 15.5498 -44.2000 TS 47 12 285
1888239N13328 1888 41 NA NA NOT_NAMED 1888-08-28 06:00:00 TS 15.7000 -44.8000 main 1452 1424 _____________O -1 15.7000 -44.8000 TS 50 12 282
1888239N13328 1888 41 NA NA NOT_NAMED 1888-08-28 09:00:00 TS 15.7998 -45.4002 main 1424 1398 _____________P -1 15.7998 -45.4002 TS 52 12 280
1888239N13328 1888 41 NA NA NOT_NAMED 1888-08-28 12:00:00 TS 15.9000 -46.0000 main 1398 1375 _____________O -1 15.9000 -46.0000 TS 55 12 282
1888239N13328 1888 41 NA NA NOT_NAMED 1888-08-28 15:00:00 TS 16.0498 -46.6000 main 1375 1365 _____________P -1 16.0498 -46.6000 TS 57 12 285
1888239N13328 1888 41 NA NA NOT_NAMED 1888-08-28 18:00:00 TS 16.2000 -47.2000 main 1365 1347 _____________O -1 16.2000 -47.2000 TS 60 12 282
1888239N13328 1888 41 NA NA NOT_NAMED 1888-08-28 21:00:00 TS 16.2998 -47.8002 main 1347 1332 _____________P -1 16.2998 -47.8002 TS 60 12 280
1888239N13328 1888 41 NA NA NOT_NAMED 1888-08-29 00:00:00 TS 16.4000 -48.4000 main 1332 1315 _____________O -1 16.4000 -48.4000 TS 60 12 282
1888239N13328 1888 41 NA NA NOT_NAMED 1888-08-29 03:00:00 TS 16.5498 -49.0000 main 1315 1307 _____________P -1 16.5498 -49.0000 TS 62 12 285
1888239N13328 1888 41 NA NA NOT_NAMED 1888-08-29 06:00:00 TS 16.7000 -49.6000 main 1309 1296 _____________O -1 16.7000 -49.6000 HU 65 12 282
1888239N13328 1888 41 NA NA NOT_NAMED 1888-08-29 09:00:00 TS 16.7998 -50.2002 main 1296 1285 _____________P -1 16.7998 -50.2002 HU 65 12 280
1888239N13328 1888 41 NA NA NOT_NAMED 1888-08-29 12:00:00 TS 16.9000 -50.8000 main 1286 1253 _____________O -1 16.9000 -50.8000 HU 65 12 282
1888239N13328 1888 41 NA NA NOT_NAMED 1888-08-29 15:00:00 TS 17.0498 -51.4000 main 1253 1213 _____________P -1 17.0498 -51.4000 HU 65 12 285
1888239N13328 1888 41 NA NA NOT_NAMED 1888-08-29 18:00:00 TS 17.2000 -52.0000 main 1213 1169 _____________O -1 17.2000 -52.0000 HU 65 12 282
1888239N13328 1888 41 NA NA NOT_NAMED 1888-08-29 21:00:00 TS 17.2998 -52.5927 main 1169 1127 _____________P -1 17.2998 -52.5927 HU 65 12 280
1888239N13328 1888 41 NA NA NOT_NAMED 1888-08-30 00:00:00 TS 17.4000 -53.2000 main 1127 1087 _____________O -1 17.4000 -53.2000 HU 65 12 282
1888239N13328 1888 41 NA NA NOT_NAMED 1888-08-30 03:00:00 TS 17.5499 -53.8499 main 1087 1051 _____________P -1 17.5499 -53.8499 HU 65 13 284
1888239N13328 1888 41 NA NA NOT_NAMED 1888-08-30 06:00:00 TS 17.7000 -54.5000 main 1051 1017 _____________O -1 17.7000 -54.5000 HU 65 12 282
1888239N13328 1888 41 NA NA NOT_NAMED 1888-08-30 09:00:00 TS 17.7997 -55.1077 main 1017 987 _____________P -1 17.7997 -55.1077 HU 65 12 280
1888239N13328 1888 41 NA NA NOT_NAMED 1888-08-30 12:00:00 TS 17.9000 -55.7000 main 987 961 _____________O -1 17.9000 -55.7000 HU 65 12 282
1888239N13328 1888 41 NA NA NOT_NAMED 1888-08-30 15:00:00 TS 18.0498 -56.2999 main 961 918 _____________P -1 18.0498 -56.2999 HU 65 12 285
1888239N13328 1888 41 NA NA NOT_NAMED 1888-08-30 18:00:00 TS 18.2000 -56.9000 main 918 865 _____________O -1 18.2000 -56.9000 HU 65 12 282
1888239N13328 1888 41 NA NA NOT_NAMED 1888-08-30 21:00:00 TS 18.2998 -57.5002 main 854 717 _____________P -1 18.2998 -57.5002 HU 65 19 285
1888239N13328 1888 41 NA NA NOT_NAMED 1888-08-31 00:00:00 TS 18.7000 -58.8333 60 hurdat_atl main 717 625 O____________O hurdat_atl AL041888 19.3000 -60.3000 TS 60 0 18.4000 -58.1000 HU 65 22 288
1888239N13328 1888 41 NA NA NOT_NAMED 1888-08-31 03:00:00 TS 18.9776 -59.7548 main 614 544 P____________P AL041888 19.4054 -60.8097 TS 62 0 18.5498 -58.6999 HU 65 16 287
1888239N13328 1888 41 NA NA NOT_NAMED 1888-08-31 06:00:00 TS 19.1800 -60.5000 65 hurdat_atl main 544 484 O____________O hurdat_atl AL041888 19.5000 -61.3000 HU 65 1 18.7000 -59.3000 HU 65 14 285
1888239N13328 1888 41 NA NA NOT_NAMED 1888-08-31 09:00:00 TS 19.3230 -61.1470 main 484 425 P____________P AL041888 19.5846 -61.7703 HU 67 1 18.7998 -59.9002 HU 67 12 283
1888239N13328 1888 41 NA NA NOT_NAMED 1888-08-31 12:00:00 TS 19.4333 -61.7000 70 hurdat_atl main 425 372 O____________O hurdat_atl AL041888 19.7000 -62.3000 HU 70 1 18.9000 -60.5000 HU 70 12 284
1888239N13328 1888 41 NA NA NOT_NAMED 1888-08-31 15:00:00 TS 19.6067 -62.3566 main 362 314 P____________P AL041888 19.8852 -62.9849 HU 70 1 19.0498 -61.0999 HU 72 13 286
1888239N13328 1888 41 NA NA NOT_NAMED 1888-08-31 18:00:00 TS 19.8000 -63.0333 70 hurdat_atl main 314 275 O____________O hurdat_atl AL041888 20.1000 -63.7000 HU 70 1 19.2000 -61.7000 HU 75 13 287
1888239N13328 1888 41 NA NA NOT_NAMED 1888-08-31 21:00:00 TS 19.9714 -63.6435 main 275 240 P____________P AL041888 20.3071 -64.3151 HU 72 1 19.2998 -62.3002 HU 77 12 286
1888239N13328 1888 41 NA NA NOT_NAMED 1888-09-01 00:00:00 TS 20.1333 -64.2333 75 hurdat_atl main 240 227 O____________O hurdat_atl AL041888 20.5000 -64.9000 HU 75 1 19.4000 -62.9000 HU 80 12 286
1888239N13328 1888 41 NA NA NOT_NAMED 1888-09-01 03:00:00 TS 20.2932 -64.8434 main 228 221 P____________P AL041888 20.6649 -65.5151 HU 75 1 19.5498 -63.4999 HU 80 12 285
1888239N13328 1888 41 NA NA NOT_NAMED 1888-09-01 06:00:00 TS 20.4333 -65.4333 75 hurdat_atl main 224 223 O____________O hurdat_atl AL041888 20.8000 -66.1000 HU 75 1 19.7000 -64.1000 HU 80 11 283
1888239N13328 1888 41 NA NA NOT_NAMED 1888-09-01 09:00:00 TS 20.5432 -65.9868 main 234 234 P____________P AL041888 20.9148 -66.6301 HU 77 1 19.7998 -64.7002 HU 80 10 281
1888239N13328 1888 41 NA NA NOT_NAMED 1888-09-01 12:00:00 TS 20.6333 -66.5000 80 hurdat_atl main 246 246 O____________O hurdat_atl AL041888 21.0000 -67.1000 HU 80 1 19.9000 -65.3000 HU 80 10 281
1888239N13328 1888 41 NA NA NOT_NAMED 1888-09-01 15:00:00 TS 20.7215 -66.9867 main 257 256 P____________P AL041888 21.0574 -67.5301 HU 80 1 20.0498 -65.8999 HU 80 9 281
1888239N13328 1888 41 NA NA NOT_NAMED 1888-09-01 18:00:00 TS 20.8000 -67.4333 80 hurdat_atl main 256 236 O____________O hurdat_atl AL041888 21.1000 -67.9000 HU 80 1 20.2000 -66.5000 HU 80 8 280
1888239N13328 1888 41 NA NA NOT_NAMED 1888-09-01 21:00:00 TS 20.8665 -67.8384 main 237 212 P____________P AL041888 21.1498 -68.2075 HU 82 1 20.2998 -67.1003 HU 82 8 280
1888239N13328 1888 41 NA NA NOT_NAMED 1888-09-02 00:00:00 TS 20.9333 -68.2333 85 hurdat_atl main 212 203 O____________O hurdat_atl AL041888 21.2000 -68.5000 HU 85 2 20.4000 -67.7000 HU 85 8 281
1888239N13328 1888 41 NA NA NOT_NAMED 1888-09-02 03:00:00 TS 21.0165 -68.6517 main 200 192 P____________P AL041888 21.2499 -68.8275 HU 85 2 20.5498 -68.2999 HU 85 8 282
1888239N13328 1888 41 NA NA NOT_NAMED 1888-09-02 06:00:00 TS 21.1000 -69.1000 85 hurdat_atl main 192 175 O____________O hurdat_atl AL041888 21.3000 -69.2000 HU 85 2 20.7000 -68.9000 HU 85 9 280
1888239N13328 1888 41 NA NA NOT_NAMED 1888-09-02 09:00:00 TS 21.1615 -69.5752 main 183 165 P____________P AL041888 21.3423 -69.6126 HU 87 2 20.7998 -69.5003 HU 87 9 278
1888239N13328 1888 41 NA NA NOT_NAMED 1888-09-02 12:00:00 TS 21.2333 -70.1000 90 hurdat_atl main 165 162 O____________O hurdat_atl AL041888 21.4000 -70.1000 HU 90 2 20.9000 -70.1000 HU 90 11 280
1888239N13328 1888 41 NA NA NOT_NAMED 1888-09-02 15:00:00 TS 21.3425 -70.6925 main 167 167 P____________P AL041888 21.4926 -70.6850 HU 90 2 21.0424 -70.7075 HU 90 11 282
1888239N13328 1888 41 NA NA NOT_NAMED 1888-09-02 18:00:00 TS 21.4667 -71.3000 90 hurdat_atl main 179 132 O____________O hurdat_atl AL041888 21.6000 -71.3000 HU 90 2 21.2000 -71.3000 HU 90 11 283
1888239N13328 1888 41 NA NA NOT_NAMED 1888-09-02 21:00:00 TS 21.5880 -71.8526 main 122 83 P____________P AL041888 21.7072 -71.8500 HU 92 2 21.3497 -71.8576 HU 92 10 283
1888239N13328 1888 41 NA NA NOT_NAMED 1888-09-03 00:00:00 TS 21.7000 -72.4000 95 hurdat_atl main 83 63 O____________O hurdat_atl AL041888 21.8000 -72.4000 HU 95 2 21.5000 -72.4000 HU 95 11 280
1888239N13328 1888 41 NA NA NOT_NAMED 1888-09-03 03:00:00 TS 21.7807 -72.9785 main 67 67 P____________P AL041888 21.8499 -72.9927 HU 97 3 21.6423 -72.9502 HU 97 11 279
1888239N13328 1888 41 NA NA NOT_NAMED 1888-09-03 06:00:00 TS 21.8667 -73.5667 100 hurdat_atl main 88 88 O____________O hurdat_atl AL041888 21.9000 -73.6000 HU 100 3 21.8000 -73.5000 MH 100 11 281
1888239N13328 1888 41 NA NA NOT_NAMED 1888-09-03 09:00:00 TS 21.9975 -74.1774 main 113 113 P____________P AL041888 21.9924 -74.2075 HU 102 3 22.0078 -74.1172 MH 102 11 284
1888239N13328 1888 41 NA NA NOT_NAMED 1888-09-03 12:00:00 TS 22.1333 -74.7333 105 hurdat_atl main 152 143 O____________O hurdat_atl AL041888 22.1000 -74.8000 HU 105 3 22.2000 -74.6000 MH 105 972 9 286
1888239N13328 1888 41 NA NA NOT_NAMED 1888-09-03 15:00:00 TS 22.2401 -75.1086 main 143 142 P____________P AL041888 22.1997 -75.3576 HU 107 3 22.3209 -74.6105 MH 107 976 8 285
1888239N13328 1888 41 NA NA NOT_NAMED 1888-09-03 18:00:00 TS 22.3333 -75.5333 110 hurdat_atl main 142 121 O____________O hurdat_atl AL041888 22.3000 -75.9000 HU 110 3 22.4000 -74.8000 MH 110 980 11 279
1888239N13328 1888 41 NA NA NOT_NAMED 1888-09-03 21:00:00 TS 22.4175 -76.2559 main 113 90 P____________P AL041888 22.3997 -76.4426 HU 110 3 22.4531 -75.8825 MH 110 974 14 277
1888239N13328 1888 41 NA NA NOT_NAMED 1888-09-04 00:00:00 TS 22.5000 -77.0333 110 hurdat_atl main 90 78 O____________O hurdat_atl AL041888 22.5000 -77.0000 HU 110 3 22.5000 -77.1000 MH 110 969 13 278
1888239N13328 1888 41 NA NA NOT_NAMED 1888-09-04 03:00:00 TS 22.5966 -77.6168 main 78 49 P____________P AL041888 22.5996 -77.5701 HU 110 3 22.5907 -77.7101 MH 110 11 281
1888239N13328 1888 41 NA NA NOT_NAMED 1888-09-04 06:00:00 TS 22.7000 -78.2000 110 hurdat_atl main 49 44 O____________O hurdat_atl AL041888 22.7000 -78.2000 HU 110 3 22.7000 -78.2000 MH 110 13 280
1888239N13328 1888 41 NA NA NOT_NAMED 1888-09-04 09:00:00 TS 22.8079 -78.9549 main 55 22 P____________P AL041888 22.8078 -78.9574 HU 110 3 22.8079 -78.9499 MH 110 14 278
1888239N13328 1888 41 NA NA NOT_NAMED 1888-09-04 12:00:00 TS 22.9000 -79.7000 110 hurdat_atl main 22 0 O____________O hurdat_atl AL041888 22.9000 -79.7000 HU 110 3 22.9000 -79.7000 MH 110 12 277
1888239N13328 1888 41 NA NA NOT_NAMED 1888-09-04 15:00:00 TS 22.9645 -80.2801 main 11 0 P____________P AL041888 22.9645 -80.2801 HU 100 3 22.9645 -80.2801 MH 100 10 276
1888239N13328 1888 41 NA NA NOT_NAMED 1888-09-04 18:00:00 TS 23.0000 -80.8000 90 hurdat_atl main 0 0 O____________O hurdat_atl AL041888 23.0000 -80.8000 HU 90 2 23.0000 -80.8000 HU 90 10 273
1888239N13328 1888 41 NA NA NOT_NAMED 1888-09-04 21:00:00 TS 23.0225 -81.3649 main 0 0 P____________P AL041888 23.0225 -81.3649 HU 85 2 23.0225 -81.3649 HU 85 10 270
1888239N13328 1888 41 NA NA NOT_NAMED 1888-09-05 00:00:00 TS 23.0000 -81.9000 80 hurdat_atl main 0 0 O____________O hurdat_atl AL041888 23.0000 -81.9000 HU 80 1 23.0000 -81.9000 HU 80 9 264
1888239N13328 1888 41 NA NA NOT_NAMED 1888-09-05 03:00:00 TS 22.9197 -82.3650 main 0 0 P____________P AL041888 22.9222 -82.3650 HU 77 1 22.9147 -82.3651 HU 77 9 256
1888239N13328 1888 41 NA NA NOT_NAMED 1888-09-05 06:00:00 TS 22.8000 -82.8000 75 hurdat_atl main 0 0 O____________O hurdat_atl AL041888 22.8000 -82.8000 HU 75 1 22.8000 -82.8000 HU 75 976 8 253
1888239N13328 1888 41 NA NA NOT_NAMED 1888-09-05 09:00:00 TS 22.6713 -83.2274 main 0 0 P____________P AL041888 22.6572 -83.2274 HU 72 1 22.6997 -83.2274 HU 72 9 252
1888239N13328 1888 41 NA NA NOT_NAMED 1888-09-05 12:00:00 TS 22.5333 -83.7000 70 hurdat_atl main 0 0 O____________O hurdat_atl AL041888 22.5000 -83.7000 HU 70 1 22.6000 -83.7000 HU 70 10 255
1888239N13328 1888 41 NA NA NOT_NAMED 1888-09-05 15:00:00 TS 22.4050 -84.2774 main 0 0 P____________P AL041888 22.3575 -84.2774 HU 70 1 22.5000 -84.2775 HU 70 11 256
1888239N13328 1888 41 NA GM NOT_NAMED 1888-09-05 18:00:00 TS 22.2667 -84.9000 70 hurdat_atl main 44 33 O____________O hurdat_atl AL041888 22.2000 -84.9000 HU 70 1 22.4000 -84.9000 HU 70 12 255
1888239N13328 1888 41 NA GM NOT_NAMED 1888-09-05 21:00:00 TS 22.1049 -85.5150 main 56 56 P____________P AL041888 22.0074 -85.5150 HU 70 1 22.2999 -85.5149 HU 70 12 253
1888239N13328 1888 41 NA GM NOT_NAMED 1888-09-06 00:00:00 TS 21.9333 -86.1000 70 hurdat_atl main 98 53 O____________O hurdat_atl AL041888 21.8000 -86.1000 HU 70 1 22.2000 -86.1000 HU 70 11 252
1888239N13328 1888 41 NA GM NOT_NAMED 1888-09-06 03:00:00 TS 21.7614 -86.6224 main 53 11 P____________P AL041888 21.5923 -86.6224 HU 70 1 22.0998 -86.6224 HU 70 10 250
1888239N13328 1888 41 NA GM NOT_NAMED 1888-09-06 06:00:00 TS 21.6000 -87.1000 70 hurdat_atl main 11 11 O____________O hurdat_atl AL041888 21.4000 -87.1000 HU 70 1 22.0000 -87.1000 HU 70 9 251
1888239N13328 1888 41 NA NA NOT_NAMED 1888-09-06 09:00:00 TS 21.4614 -87.5498 main 11 0 P____________P AL041888 21.2423 -87.5498 HU 65 1 21.8997 -87.5499 HU 70 9 252
1888239N13328 1888 41 NA NA NOT_NAMED 1888-09-06 12:00:00 TS 21.3333 -88.0000 60 hurdat_atl main 0 0 O____________O hurdat_atl AL041888 21.1000 -88.0000 TS 60 0 21.8000 -88.0000 HU 70 9 254
1888239N13328 1888 41 NA NA NOT_NAMED 1888-09-06 15:00:00 TS 21.2024 -88.4924 main 0 0 P____________P AL041888 20.9499 -88.4924 TS 57 0 21.7074 -88.4924 HU 70 10 254
1888239N13328 1888 41 NA NA NOT_NAMED 1888-09-06 18:00:00 TS 21.0667 -89.0000 55 hurdat_atl main 0 0 O____________O hurdat_atl AL041888 20.8000 -89.0000 TS 55 0 21.6000 -89.0000 HU 70 10 253
1888239N13328 1888 41 NA NA NOT_NAMED 1888-09-06 21:00:00 TS 20.9240 -89.4923 main 0 0 P____________P AL041888 20.6498 -89.4924 TS 52 0 21.4723 -89.4923 HU 70 10 252
1888239N13328 1888 41 NA NA NOT_NAMED 1888-09-07 00:00:00 TS 20.7667 -90.0000 50 hurdat_atl main 0 0 O____________O hurdat_atl AL041888 20.5000 -90.0000 TS 50 0 21.3000 -90.0000 HU 70 10 251
1888239N13328 1888 41 NA GM NOT_NAMED 1888-09-07 03:00:00 TS 20.5932 -90.5349 main 10 10 P____________P AL041888 20.3498 -90.5349 TS 55 0 21.0798 -90.5348 HU 70 11 250
1888239N13328 1888 41 NA GM NOT_NAMED 1888-09-07 06:00:00 TS 20.4000 -91.1000 60 hurdat_atl main 62 62 O____________O hurdat_atl AL041888 20.2000 -91.1000 TS 60 0 20.8000 -91.1000 HU 70 12 249
1888239N13328 1888 41 NA GM NOT_NAMED 1888-09-07 09:00:00 TS 20.1809 -91.7101 main 118 118 P____________P AL041888 20.0575 -91.7074 TS 65 1 20.4276 -91.7155 HU 85 12 249
1888239N13328 1888 41 NA GM NOT_NAMED 1888-09-07 12:00:00 TS 19.9667 -92.3000 70 hurdat_atl main 148 134 O____________O hurdat_atl AL041888 19.9000 -92.3000 HU 70 1 20.1000 -92.3000 MH 100 11 249
1888239N13328 1888 41 NA GM NOT_NAMED 1888-09-07 15:00:00 TS 19.7972 -92.8006 main 134 123 P____________P AL041888 19.7147 -92.8148 HU 77 1 19.9622 -92.7720 MH 100 10 250
1888239N13328 1888 41 NA GM NOT_NAMED 1888-09-07 18:00:00 TS 19.6333 -93.2667 85 hurdat_atl main 128 128 O____________O hurdat_atl AL041888 19.5000 -93.3000 HU 85 2 19.9000 -93.2000 MH 100 10 250
1888239N13328 1888 41 NA GM NOT_NAMED 1888-09-07 21:00:00 TS 19.4632 -93.7548 main 134 113 P____________P AL041888 19.2949 -93.8072 HU 80 1 19.7999 -93.6499 MH 100 10 249
1888239N13328 1888 41 NA GM NOT_NAMED 1888-09-08 00:00:00 TS 19.2800 -94.2200 75 hurdat_atl main 114 70 O____________O hurdat_atl AL041888 19.0000 -94.3000 HU 75 1 19.7000 -94.1000 MH 100 9 245
1888239N13328 1888 41 NA GM NOT_NAMED 1888-09-08 03:00:00 TS 19.0738 -94.6553 main 64 39 P____________P AL041888 18.5477 -94.7607 HU 55 0 19.5999 -94.5499 MH 100 8 251
1888239N13328 1888 41 NA GM NOT_NAMED 1888-09-08 06:00:00 TS 19.0000 -95.0667 35 hurdat_atl main 35 35 O____________O hurdat_atl AL041888 18.0000 -95.2000 TS 35 0 19.5000 -95.0000 MH 100 8 293
1888239N13328 1888 41 NA GM NOT_NAMED 1888-09-08 09:00:00 NR 19.3999 -95.4500 main 74 23 _____________P AL041888 TS -1 19.3999 -95.4500 MH 100 8 291
1888239N13328 1888 41 NA GM NOT_NAMED 1888-09-08 12:00:00 NR 19.3000 -95.9000 main 23 0 _____________O -1 19.3000 -95.9000 MH 100 9 257
1888239N13328 1888 41 NA NA NOT_NAMED 1888-09-08 15:00:00 NR 19.1999 -96.3500 main 0 0 _____________P -1 19.1999 -96.3500 MH 85 9 257
1888239N13328 1888 41 NA NA NOT_NAMED 1888-09-08 18:00:00 TS 19.1000 -96.8000 main 0 0 _____________O -1 19.1000 -96.8000 HU 70 10 258
1888239N13328 1888 41 NA NA NOT_NAMED 1888-09-08 21:00:00 TS 19.0002 -97.3852 main 0 0 _____________P -1 19.0002 -97.3852 HU 55 9 257
1888239N13328 1888 41 NA NA NOT_NAMED 1888-09-09 00:00:00 TS 18.9000 -97.7000 main 0 0 _____________O -1 18.9000 -97.7000 TS 40 2 172
1888239N13328 1888 41 NA NA NOT_NAMED 1888-09-09 03:00:00 TS 18.8002 -97.3848 main 0 0 _____________P -1 18.8002 -97.3848 TS 35 9 103
1888239N13328 1888 41 NA NA NOT_NAMED 1888-09-09 06:00:00 TS 18.7000 -96.8000 main 0 0 _____________O -1 18.7000 -96.8000 TD 30 10 101
1888239N13328 1888 41 NA NA NOT_NAMED 1888-09-09 09:00:00 TS 18.5999 -96.3051 main 0 0 _____________P -1 18.5999 -96.3051 TD 25 9 103
1888239N13328 1888 41 NA NA NOT_NAMED 1888-09-09 12:00:00 TS 18.5000 -95.9000 main 0 _____________O -1 18.5000 -95.9000 TD 20 8 105

IBTrACS Databaseについて

本データベースは、米国NOAAが公開する1842年以降の世界の熱帯低気圧のベストトラックデータアーカイブInternational Best Track Archive for Climate Stewardship (IBTrACS)を、ウェブで閲覧しやすい形式に変換したものです。

最終更新日:2021-10-08